createdAt,value
2018-02-09T19:50:06.506Z,37.00
2018-02-09T19:51:04.409Z,49.50
2018-02-09T19:52:04.016Z,53.80
2018-02-09T19:53:57.252Z,58.20
2018-02-09T19:54:57.003Z,56.00
2018-02-09T19:56:50.516Z,59.40
2018-02-09T19:57:50.409Z,58.30
2018-02-09T19:59:43.825Z,58.30
2018-02-09T20:00:43.793Z,58.70
2018-02-09T20:02:37.096Z,55.70
2018-02-09T20:03:37.008Z,59.20
2018-02-09T20:05:30.762Z,57.60
2018-02-09T20:06:30.088Z,57.60
2018-02-09T20:08:23.169Z,57.30
2018-02-09T20:09:23.093Z,57.20
2018-02-09T20:11:18.337Z,57.40
2018-02-09T20:12:16.062Z,58.20
2018-02-09T20:14:13.548Z,58.40
2018-02-09T20:15:14.118Z,55.70
2018-02-09T20:17:06.928Z,53.60
2018-02-09T20:18:06.885Z,53.70
2018-02-09T20:20:01.444Z,54.60
2018-02-09T20:21:01.508Z,54.10
2018-02-09T20:23:10.010Z,52.30
2018-02-09T20:24:09.880Z,52.20
2018-02-09T20:26:07.587Z,52.80
2018-02-09T20:27:07.488Z,50.20
2018-02-09T20:29:00.749Z,53.40
2018-02-09T20:30:00.717Z,50.40
2018-02-09T20:31:55.423Z,53.60
2018-02-09T20:32:55.359Z,55.00
2018-02-09T20:34:49.678Z,51.90
2018-02-09T20:35:49.514Z,51.90
2018-02-09T20:37:44.091Z,50.80
2018-02-09T20:38:43.778Z,50.10
2018-02-09T20:40:37.110Z,52.30
2018-02-09T20:41:36.670Z,52.10
2018-02-09T20:43:34.090Z,50.80
2018-02-09T20:44:34.273Z,49.80
2018-02-09T20:45:35.563Z,51.50
2018-02-09T20:46:36.063Z,52.90
2018-02-09T20:47:33.706Z,52.00
2018-02-09T20:48:34.710Z,51.30
2018-02-09T20:49:33.791Z,51.80
2018-02-09T20:50:33.762Z,51.70
2018-02-09T20:51:33.600Z,51.40
2018-02-09T20:52:33.654Z,50.30
2018-02-09T20:53:33.668Z,50.60
2018-02-09T20:54:33.676Z,49.70
2018-02-09T20:55:34.439Z,50.60
2018-02-09T20:56:33.325Z,50.70
2018-02-09T20:57:33.434Z,50.40
2018-02-09T20:58:33.265Z,50.10
2018-02-09T20:59:36.270Z,50.20
2018-02-09T21:00:36.559Z,51.60
2018-02-09T21:01:33.139Z,50.50
2018-02-09T21:02:34.032Z,50.50
2018-02-09T21:03:33.068Z,52.10
2018-02-09T21:04:35.661Z,51.60
2018-02-09T21:05:33.311Z,52.10
2018-02-09T21:06:32.988Z,53.00
2018-02-09T21:07:31.498Z,51.30
2018-02-09T21:08:31.361Z,51.60
2018-02-09T21:09:30.978Z,51.60
2018-02-09T21:10:30.886Z,52.60
2018-02-09T21:11:32.742Z,51.40
2018-02-09T21:12:31.106Z,51.20
2018-02-09T21:13:31.746Z,50.80
2018-02-09T21:14:30.669Z,51.00
2018-02-09T21:15:31.327Z,52.80
2018-02-09T21:16:31.217Z,50.30
2018-02-09T21:17:30.622Z,51.40
2018-02-09T21:18:30.595Z,51.20
2018-02-09T21:21:27.128Z,51.80
2018-02-09T21:22:26.794Z,52.10
2018-02-09T21:24:20.713Z,52.50
2018-02-09T21:26:36.470Z,50.80
2018-02-09T21:27:35.075Z,51.30
2018-02-09T21:29:29.646Z,50.60
2018-02-09T21:30:29.699Z,53.20
2018-02-09T21:32:24.380Z,51.10
2018-02-09T21:33:24.590Z,52.40
2018-02-09T21:35:20.373Z,52.40
2018-02-09T21:38:13.110Z,54.80
2018-02-09T21:39:12.710Z,53.10
2018-02-09T21:41:09.331Z,52.90
2018-02-09T21:44:06.657Z,51.80
2018-02-09T21:46:33.381Z,50.90
2018-02-09T21:47:33.038Z,52.30
2018-02-09T21:48:33.106Z,52.00
2018-02-09T21:49:35.007Z,50.50
2018-02-09T21:50:34.553Z,52.20
2018-02-09T21:51:32.866Z,52.30
2018-02-09T21:52:32.743Z,52.70
2018-02-09T21:53:32.779Z,53.30
2018-02-09T21:54:34.373Z,51.00
2018-02-09T21:55:38.305Z,51.10
2018-02-09T21:56:32.526Z,52.00
2018-02-09T21:57:33.573Z,52.50
2018-02-09T21:58:32.784Z,50.60
2018-02-09T21:59:32.820Z,52.40
2018-02-09T22:00:32.381Z,52.80
2018-02-09T22:01:32.409Z,51.10
2018-02-09T22:02:32.417Z,50.40
2018-02-09T22:03:32.328Z,52.90
2018-02-09T22:04:32.337Z,54.20
2018-02-09T22:05:32.450Z,52.10
2018-02-09T22:06:32.360Z,50.90
2018-02-09T22:07:32.079Z,52.50
2018-02-09T22:08:31.969Z,51.80
2018-02-09T22:09:30.856Z,51.20
2018-02-09T22:10:31.044Z,52.90
2018-02-09T22:11:30.217Z,53.90
2018-02-09T22:12:30.051Z,51.60
2018-02-09T22:13:31.524Z,51.20
2018-02-09T22:14:32.550Z,52.10
2018-02-09T22:15:30.521Z,51.50
2018-02-09T22:16:30.015Z,51.90
2018-02-09T22:17:29.915Z,52.30
2018-02-09T22:18:32.841Z,52.70
2018-02-09T22:19:29.826Z,51.20
2018-02-09T22:20:29.461Z,52.00
2018-02-09T22:21:29.978Z,53.40
2018-02-09T22:22:29.517Z,53.60
2018-02-09T22:23:29.407Z,50.00
2018-02-09T22:24:31.171Z,50.50
2018-02-09T22:25:29.385Z,49.10
2018-02-09T22:26:29.820Z,50.60
2018-02-09T22:27:29.443Z,50.80
2018-02-09T22:28:29.506Z,51.50
2018-02-09T22:29:35.043Z,49.20
2018-02-09T22:30:29.064Z,50.60
2018-02-09T22:31:31.952Z,50.00
2018-02-09T22:32:29.019Z,49.50
2018-02-09T22:33:29.133Z,49.80
2018-02-09T22:34:30.556Z,48.20
2018-02-09T22:35:30.039Z,50.00
2018-02-09T22:36:29.170Z,49.10
2018-02-09T22:37:29.072Z,49.70
2018-02-09T22:38:37.028Z,49.70
2018-02-09T22:39:28.843Z,49.40
2018-02-09T22:40:31.684Z,48.60
2018-02-09T22:41:29.201Z,47.50
2018-02-09T22:42:28.602Z,49.00
2018-02-09T22:43:28.731Z,48.00
2018-02-09T22:44:31.522Z,47.70
2018-02-09T22:45:28.763Z,48.10
2018-02-09T22:46:31.048Z,48.20
2018-02-09T22:47:28.557Z,49.60
2018-02-09T22:48:28.328Z,48.50
2018-02-09T22:49:28.652Z,48.30
2018-02-09T22:50:28.338Z,49.30
2018-02-09T22:51:28.963Z,50.40
2018-02-09T22:52:28.226Z,49.00
2018-02-09T22:53:30.176Z,48.40
2018-02-09T22:54:30.411Z,48.30
2018-02-09T22:55:29.359Z,48.30
2018-02-09T22:56:28.095Z,48.00
2018-02-09T22:57:31.085Z,47.80
2018-02-09T22:58:28.056Z,48.70
2018-02-09T22:59:31.191Z,48.50
2018-02-09T23:00:27.877Z,48.10
2018-02-09T23:01:27.793Z,49.70
2018-02-09T23:02:42.358Z,45.90
2018-02-09T23:04:22.799Z,48.80
2018-02-09T23:05:22.731Z,50.10
2018-02-09T23:07:20.852Z,48.90
2018-02-09T23:08:20.867Z,48.20
2018-02-09T23:10:24.310Z,45.40
2018-02-09T23:11:24.373Z,47.40
2018-02-09T23:13:17.344Z,49.40
2018-02-09T23:14:17.056Z,50.70
2018-02-09T23:16:11.833Z,50.30
2018-02-09T23:17:11.751Z,50.90
2018-02-09T23:19:07.939Z,49.40
2018-02-09T23:22:01.323Z,48.90
2018-02-09T23:23:01.477Z,49.70
2018-02-09T23:24:57.077Z,47.40
2018-02-09T23:27:51.881Z,47.60
2018-02-09T23:28:51.596Z,50.10
2018-02-09T23:30:50.554Z,50.70
2018-02-09T23:33:47.311Z,50.00
2018-02-09T23:34:46.737Z,50.40
2018-02-09T23:36:40.292Z,49.60
2018-02-09T23:37:40.247Z,49.30
2018-02-09T23:39:33.659Z,47.20
2018-02-09T23:40:33.772Z,47.20
2018-02-09T23:42:26.553Z,48.70
2018-02-09T23:43:26.417Z,49.50
2018-02-09T23:45:19.734Z,49.10
2018-02-09T23:46:19.815Z,47.50
2018-02-09T23:48:17.075Z,48.20
2018-02-09T23:50:30.308Z,47.80
2018-02-09T23:51:30.008Z,48.10
2018-02-09T23:53:33.805Z,44.50
2018-02-09T23:54:33.971Z,47.40
2018-02-09T23:56:28.501Z,48.60
2018-02-09T23:57:28.575Z,47.10
2018-02-09T23:59:22.146Z,47.40
